Time;durP1;ratioP1;P1;durP2;ratioP2;P2;SDS_P1;SDS_P2;PMS_P1;PMS_P2;Temp;Humidity;BMP_temperature;BMP_pressure;BME280_temperature;BME280_humidity;BME280_pressure;Samples;Min_cycle;Max_cycle;Signal;HPM_P1;HPM_P2
2023/03/09 00:01:51;;;;;;;17.13;7.95;;;21.90;59.90;;;;;;5030800;28;20038;-76
2023/03/09 00:04:17;;;;;;;9.90;5.53;;;21.90;59.70;;;;;;5028186;28;20119;-74
2023/03/09 00:06:44;;;;;;;9.27;4.82;;;21.90;59.60;;;;;;5030676;28;20477;-76
2023/03/09 00:09:12;;;;;;;8.57;4.65;;;22.00;59.90;;;;;;5030714;28;20136;-77
2023/03/09 00:11:42;;;;;;;7.28;4.70;;;21.90;59.80;;;;;;5030338;28;20061;-75
2023/03/09 00:14:08;;;;;;;8.02;5.03;;;21.90;59.60;;;;;;5034593;28;20046;-75
2023/03/09 00:16:36;;;;;;;10.07;5.28;;;22.00;59.50;;;;;;5033409;28;20032;-75
2023/03/09 00:19:02;;;;;;;13.80;6.78;;;22.00;59.50;;;;;;5034311;28;20041;-75
2023/03/09 00:21:36;;;;;;;11.13;5.78;;;22.00;59.40;;;;;;5034066;28;20041;-75
2023/03/09 00:24:08;;;;;;;9.65;5.68;;;21.90;59.50;;;;;;5033977;28;20041;-75
2023/03/09 00:26:36;;;;;;;8.65;5.55;;;21.90;59.50;;;;;;5034124;28;20029;-75
2023/03/09 00:29:03;;;;;;;13.70;5.40;;;21.90;59.70;;;;;;5034187;28;20041;-75
2023/03/09 00:31:30;;;;;;;10.93;4.82;;;22.10;59.70;;;;;;5032625;28;20037;-75
2023/03/09 00:33:56;;;;;;;10.15;5.15;;;22.10;59.60;;;;;;5032645;28;20033;-75
2023/03/09 00:36:22;;;;;;;6.30;4.03;;;22.20;59.60;;;;;;5032531;28;20034;-72
2023/03/09 00:38:53;;;;;;;7.72;4.80;;;22.20;59.60;;;;;;5033474;28;20465;-75
2023/03/09 00:41:21;;;;;;;9.70;4.45;;;22.30;59.70;;;;;;5034106;28;20037;-75
2023/03/09 00:43:48;;;;;;;6.78;4.47;;;22.20;59.40;;;;;;5033563;28;20371;-75
2023/03/09 00:46:14;;;;;;;6.38;3.55;;;22.20;59.40;;;;;;5033838;28;20156;-75
2023/03/09 00:48:41;;;;;;;7.78;4.07;;;22.30;59.50;;;;;;5032335;28;20112;-75
2023/03/09 00:51:08;;;;;;;7.20;3.10;;;22.40;59.30;;;;;;5032364;28;20038;-75
2023/03/09 00:53:35;;;;;;;6.30;3.17;;;22.40;59.10;;;;;;5032534;28;20393;-75
2023/03/09 00:56:07;;;;;;;4.53;2.83;;;22.40;59.10;;;;;;5032189;28;20393;-75
2023/03/09 00:58:33;;;;;;;5.35;2.97;;;22.40;58.90;;;;;;5032305;28;20033;-75
2023/03/09 01:01:00;;;;;;;9.43;3.05;;;22.50;59.00;;;;;;5033631;28;20030;-75
2023/03/09 01:03:26;;;;;;;5.30;2.83;;;22.40;58.90;;;;;;5033342;28;20037;-76
2023/03/09 01:05:52;;;;;;;2.72;1.95;;;22.50;59.10;;;;;;5031959;28;20480;-75
2023/03/09 01:08:18;;;;;;;5.45;2.13;;;22.40;59.00;;;;;;5033373;28;20037;-75
2023/03/09 01:10:44;;;;;;;4.90;1.85;;;22.50;58.80;;;;;;5033224;28;20053;-76
2023/03/09 01:13:10;;;;;;;2.85;2.00;;;22.60;58.70;;;;;;5033357;28;20108;-75
2023/03/09 01:15:37;;;;;;;4.43;2.42;;;22.70;58.30;;;;;;5031872;28;20048;-75
2023/03/09 01:18:03;;;;;;;3.53;2.50;;;22.70;58.40;;;;;;5033176;28;20048;-75
2023/03/09 01:20:30;;;;;;;2.38;2.10;;;22.70;58.40;;;;;;5031795;28;20083;-75
2023/03/09 01:22:56;;;;;;;1.35;1.27;;;22.80;58.40;;;;;;5033266;28;20076;-76
2023/03/09 01:25:22;;;;;;;5.10;2.15;;;22.90;58.40;;;;;;5031115;28;20121;-75
2023/03/09 01:27:48;;;;;;;1.63;1.52;;;22.90;58.40;;;;;;5033223;28;20037;-75
2023/03/09 01:30:14;;;;;;;2.45;2.03;;;22.90;58.40;;;;;;5031702;28;20045;-75
2023/03/09 01:32:40;;;;;;;3.08;2.05;;;22.90;58.40;;;;;;5031677;28;20037;-75
2023/03/09 01:35:07;;;;;;;3.53;2.03;;;22.90;58.40;;;;;;5032812;28;20187;-75
2023/03/09 01:37:33;;;;;;;2.28;2.05;;;23.00;58.40;;;;;;5032888;28;20037;-75
2023/03/09 01:39:59;;;;;;;2.92;1.92;;;23.00;58.40;;;;;;5033062;28;20037;-75
2023/03/09 01:42:25;;;;;;;2.30;1.60;;;22.90;58.40;;;;;;5031384;28;20500;-75
2023/03/09 01:45:18;;;;;;;3.63;2.25;;;22.90;58.20;;;;;;5031286;28;20037;-75
2023/03/09 01:47:45;;;;;;;3.40;2.13;;;23.00;58.40;;;;;;5032744;28;20041;-76
2023/03/09 01:50:17;;;;;;;2.05;1.83;;;23.00;58.50;;;;;;5032757;28;20132;-75
2023/03/09 01:52:47;;;;;;;2.58;2.35;;;22.90;58.50;;;;;;5031274;28;20042;-75
2023/03/09 01:55:18;;;;;;;2.83;2.20;;;23.00;58.10;;;;;;5031101;28;20033;-75
2023/03/09 01:57:53;;;;;;;2.25;1.85;;;22.80;58.60;;;;;;5030948;28;20052;-76
2023/03/09 02:00:23;;;;;;;2.20;1.80;;;22.80;58.60;;;;;;5031340;28;20029;-75
2023/03/09 02:03:28;;;;;;;1.92;1.70;;;22.90;58.80;;;;;;5029807;28;20045;-75
2023/03/09 02:06:06;;;;;;;2.53;1.63;;;22.90;58.90;;;;;;4990122;28;20042;-75
2023/03/09 02:08:33;;;;;;;1.88;1.77;;;22.90;58.90;;;;;;4974285;28;20038;-75
2023/03/09 02:11:09;;;;;;;6.65;2.33;;;22.90;58.90;;;;;;4990066;28;20510;-75
2023/03/09 02:13:43;;;;;;;2.47;1.70;;;22.80;58.70;;;;;;4974395;28;20042;-75
2023/03/09 02:16:09;;;;;;;2.90;1.75;;;23.00;58.90;;;;;;4973759;28;20707;-75
2023/03/09 02:18:36;;;;;;;2.17;1.88;;;23.00;58.90;;;;;;4971732;28;20049;-75
2023/03/09 02:21:17;;;;;;;6.20;2.08;;;23.00;58.90;;;;;;4973793;28;20534;-75
2023/03/09 02:23:43;;;;;;;2.45;2.00;;;23.00;59.00;;;;;;4990162;28;20391;-75
2023/03/09 02:26:34;;;;;;;2.30;1.83;;;22.90;59.00;;;;;;4973583;28;20034;-75
2023/03/09 02:29:01;;;;;;;4.40;2.05;;;23.00;59.00;;;;;;4973638;28;20050;-75
2023/03/09 02:31:28;;;;;;;4.10;2.78;;;23.00;59.00;;;;;;4990008;28;20092;-75
2023/03/09 02:33:54;;;;;;;4.43;2.35;;;23.00;59.00;;;;;;4990019;28;20046;-75
2023/03/09 02:36:21;;;;;;;2.45;2.25;;;23.00;59.00;;;;;;4995354;28;20152;-75
2023/03/09 02:38:48;;;;;;;2.47;1.92;;;22.90;58.70;;;;;;5009663;28;20041;-75
2023/03/09 02:41:15;;;;;;;3.92;2.33;;;23.00;59.00;;;;;;5009425;28;20038;-75
2023/03/09 02:43:48;;;;;;;4.38;2.40;;;23.00;59.00;;;;;;5030628;28;20049;-75
2023/03/09 02:46:15;;;;;;;4.00;2.28;;;22.90;59.20;;;;;;5013718;28;20484;-75
2023/03/09 02:48:41;;;;;;;2.83;2.13;;;22.80;59.20;;;;;;5030261;28;20481;-75
2023/03/09 02:51:08;;;;;;;5.45;2.30;;;22.80;59.40;;;;;;5030267;28;20137;-75
2023/03/09 02:53:34;;;;;;;2.70;2.20;;;22.80;59.60;;;;;;5031675;28;20029;-75
2023/03/09 02:56:01;;;;;;;3.38;2.70;;;22.70;59.60;;;;;;5030107;28;20033;-75
2023/03/09 02:58:26;;;;;;;4.95;2.75;;;22.70;59.80;;;;;;5013523;28;20037;-75
2023/03/09 03:00:54;;;;;;;4.15;2.00;;;22.60;60.00;;;;;;5031441;28;20037;-74
2023/03/09 03:03:21;;;;;;;4.32;2.20;;;22.50;60.00;;;;;;5030127;28;20037;-75
2023/03/09 03:05:49;;;;;;;2.70;2.35;;;22.50;60.00;;;;;;5029832;28;20437;-75
2023/03/09 03:08:15;;;;;;;4.22;2.05;;;22.40;60.00;;;;;;5029973;28;20026;-75
2023/03/09 03:10:41;;;;;;;2.85;2.38;;;22.40;60.20;;;;;;5031115;28;20050;-75
2023/03/09 03:13:09;;;;;;;5.03;2.63;;;22.40;60.10;;;;;;5028312;28;20095;-75
2023/03/09 03:15:36;;;;;;;4.35;2.33;;;22.50;60.20;;;;;;5012116;28;20057;-76
2023/03/09 03:18:02;;;;;;;4.70;2.20;;;22.60;60.10;;;;;;5028580;28;20510;-75
2023/03/09 03:20:29;;;;;;;3.35;2.25;;;22.50;60.00;;;;;;5008595;28;20121;-75
2023/03/09 03:22:58;;;;;;;6.38;2.60;;;22.60;59.90;;;;;;5008791;28;20038;-75
2023/03/09 03:25:34;;;;;;;4.97;2.30;;;22.60;60.00;;;;;;5008712;28;20418;-75
2023/03/09 03:28:02;;;;;;;3.25;2.53;;;22.50;60.10;;;;;;5008707;28;20117;-75
2023/03/09 03:30:28;;;;;;;2.92;2.13;;;22.50;60.20;;;;;;4976144;28;20061;-75
2023/03/09 03:32:56;;;;;;;2.88;2.25;;;22.50;60.20;;;;;;5008681;28;20518;-75
2023/03/09 03:35:27;;;;;;;4.60;2.38;;;22.50;60.20;;;;;;5008451;28;20038;-75
2023/03/09 03:37:54;;;;;;;4.85;2.60;;;22.50;60.10;;;;;;5008627;28;20073;-75
2023/03/09 03:40:22;;;;;;;3.72;2.40;;;22.50;59.90;;;;;;5008559;28;20037;-75
2023/03/09 03:42:51;;;;;;;2.80;2.35;;;22.50;59.90;;;;;;5008698;28;20053;-76
2023/03/09 03:45:18;;;;;;;3.58;2.28;;;22.50;59.70;;;;;;4992065;28;20394;-75
2023/03/09 03:47:44;;;;;;;7.20;2.28;;;22.70;59.60;;;;;;5010805;28;20042;-75
2023/03/09 03:50:10;;;;;;;2.53;2.05;;;22.60;59.50;;;;;;5002487;28;20508;-75
2023/03/09 03:52:45;;;;;;;3.25;2.80;;;22.60;59.40;;;;;;5015959;28;20038;-75
2023/03/09 03:55:11;;;;;;;4.22;2.70;;;22.60;59.20;;;;;;4999372;28;20042;-75
2023/03/09 03:57:38;;;;;;;6.43;2.45;;;22.60;58.90;;;;;;5020996;28;20049;-75
2023/03/09 04:00:10;;;;;;;4.57;2.47;;;22.60;59.20;;;;;;5033466;28;20034;-75
2023/03/09 04:02:39;;;;;;;5.38;1.98;;;22.60;59.20;;;;;;5032529;28;20060;-75
2023/03/09 04:05:08;;;;;;;2.95;2.38;;;22.60;59.30;;;;;;5033316;28;20120;-73
2023/03/09 04:07:36;;;;;;;5.68;2.58;;;22.40;59.30;;;;;;5033292;28;20037;-75
2023/03/09 04:10:02;;;;;;;3.67;2.55;;;22.50;59.30;;;;;;5034616;28;20103;-75
2023/03/09 04:12:30;;;;;;;3.45;2.47;;;22.60;59.40;;;;;;5033165;28;20346;-75
2023/03/09 04:14:56;;;;;;;3.40;2.53;;;22.30;59.50;;;;;;5032590;28;20045;-75
2023/03/09 04:17:22;;;;;;;3.72;2.55;;;22.50;59.90;;;;;;5032750;28;20450;-75
2023/03/09 04:19:49;;;;;;;4.93;2.92;;;22.40;59.70;;;;;;5033076;28;20030;-75
2023/03/09 04:22:15;;;;;;;3.00;2.30;;;22.30;59.90;;;;;;5033154;28;20034;-75
2023/03/09 04:24:41;;;;;;;5.22;4.30;;;22.30;59.90;;;;;;5033138;28;20033;-75
2023/03/09 04:27:07;;;;;;;5.05;3.35;;;22.40;60.20;;;;;;5034026;28;20113;-75
2023/03/09 04:29:40;;;;;;;4.45;2.00;;;22.30;60.00;;;;;;5032658;28;20068;-75
2023/03/09 04:32:07;;;;;;;4.07;2.67;;;22.40;59.80;;;;;;5032519;28;20095;-75
2023/03/09 04:34:33;;;;;;;4.32;2.90;;;22.50;59.70;;;;;;5031600;28;20099;-75
2023/03/09 04:36:59;;;;;;;4.63;2.75;;;22.40;59.50;;;;;;5000986;28;20128;-75
2023/03/09 04:39:26;;;;;;;3.45;3.13;;;22.40;59.70;;;;;;5032776;28;20073;-75
2023/03/09 04:41:51;;;;;;;3.10;2.80;;;22.40;60.00;;;;;;5033756;28;20061;-76
2023/03/09 04:44:17;;;;;;;4.60;3.22;;;22.40;60.00;;;;;;5033623;28;20489;-75
2023/03/09 04:46:44;;;;;;;3.45;2.58;;;22.20;59.60;;;;;;5032438;28;20037;-75
2023/03/09 04:49:12;;;;;;;6.40;3.60;;;22.40;60.20;;;;;;5032607;28;20041;-76
2023/03/09 04:51:41;;;;;;;3.65;2.47;;;22.20;59.60;;;;;;5032600;28;20029;-76
2023/03/09 04:54:07;;;;;;;5.78;2.65;;;22.20;59.70;;;;;;5032519;28;20045;-76
2023/03/09 04:56:34;;;;;;;9.27;3.00;;;22.30;59.30;;;;;;5030735;28;20115;-76
2023/03/09 04:59:05;;;;;;;3.05;2.58;;;22.30;59.70;;;;;;5013642;28;20081;-76
2023/03/09 05:01:32;;;;;;;3.45;2.67;;;22.40;58.80;;;;;;5031109;28;20069;-75
2023/03/09 05:04:01;;;;;;;2.35;2.15;;;22.40;59.50;;;;;;5014514;28;20044;-76
2023/03/09 05:06:31;;;;;;;4.30;2.38;;;22.40;59.40;;;;;;5014458;28;20044;-76
2023/03/09 05:08:58;;;;;;;2.67;2.33;;;22.40;59.30;;;;;;5014378;28;20045;-76
2023/03/09 05:11:25;;;;;;;3.28;2.35;;;22.60;60.90;;;;;;4997940;28;20053;-72
2023/03/09 05:13:51;;;;;;;1.85;1.63;;;22.70;59.40;;;;;;5014479;28;20091;-76
2023/03/09 05:16:20;;;;;;;2.15;1.67;;;23.00;62.30;;;;;;5030403;28;20073;-74
2023/03/09 05:18:51;;;;;;;3.17;2.53;;;23.00;61.80;;;;;;5030798;28;20088;-77
2023/03/09 05:21:21;;;;;;;6.32;3.15;;;23.20;58.10;;;;;;5014089;28;20124;-74
2023/03/09 05:23:49;;;;;;;4.55;2.50;;;23.10;56.40;;;;;;5014199;28;20091;-73
2023/03/09 05:26:16;;;;;;;7.32;2.78;;;23.20;55.50;;;;;;5013597;28;20529;-75
2023/03/09 05:28:44;;;;;;;4.50;2.63;;;23.00;55.10;;;;;;5031431;28;20053;-78
2023/03/09 05:31:13;;;;;;;3.65;2.70;;;23.00;54.60;;;;;;5031790;28;20069;-76
2023/03/09 05:33:40;;;;;;;3.45;2.63;;;23.00;54.00;;;;;;5031864;28;20042;-75
2023/03/09 05:36:23;;;;;;;6.05;2.30;;;22.90;54.50;;;;;;5031497;28;20040;-76
2023/03/09 05:38:52;;;;;;;3.47;2.50;;;23.00;55.00;;;;;;5048183;28;20477;-76
2023/03/09 05:41:20;;;;;;;2.78;1.83;;;23.00;55.50;;;;;;5031739;28;20056;-74
2023/03/09 05:43:49;;;;;;;4.30;2.20;;;22.90;56.00;;;;;;5031494;28;20035;-76
2023/03/09 05:46:17;;;;;;;3.53;2.22;;;22.90;56.30;;;;;;5031222;28;20037;-75
2023/03/09 05:48:46;;;;;;;4.55;2.70;;;23.00;56.50;;;;;;5032622;28;20095;-76
2023/03/09 05:51:12;;;;;;;3.38;2.90;;;23.00;56.70;;;;;;5031342;28;20033;-75
2023/03/09 05:53:39;;;;;;;2.95;2.10;;;22.90;53.10;;;;;;5015003;28;20435;-75
2023/03/09 05:56:06;;;;;;;2.85;2.25;;;22.90;49.20;;;;;;5031131;28;20140;-75
2023/03/09 05:58:34;;;;;;;5.63;2.67;;;22.70;47.30;;;;;;5031262;28;20064;-75
2023/03/09 06:01:01;;;;;;;3.17;2.38;;;22.60;46.50;;;;;;5031442;28;20037;-75
2023/03/09 06:03:29;;;;;;;4.32;2.80;;;22.70;47.10;;;;;;5013905;28;20045;-74
2023/03/09 06:06:01;;;;;;;8.65;3.13;;;22.70;50.50;;;;;;5030848;28;20128;-75
2023/03/09 06:08:29;;;;;;;4.15;2.78;;;22.80;49.90;;;;;;5029640;28;20041;-75
2023/03/09 06:10:58;;;;;;;6.28;3.25;;;22.80;48.30;;;;;;4996395;28;20053;-75
2023/03/09 06:13:25;;;;;;;5.38;2.92;;;22.80;52.00;;;;;;5013118;28;20052;-73
2023/03/09 06:15:51;;;;;;;5.50;3.75;;;22.80;49.00;;;;;;5013266;28;20033;-76
2023/03/09 06:18:18;;;;;;;5.40;3.58;;;22.80;50.50;;;;;;5029420;28;20528;-76
2023/03/09 06:20:48;;;;;;;5.82;3.55;;;22.70;48.40;;;;;;5013210;28;20044;-73
2023/03/09 06:23:14;;;;;;;7.25;5.50;;;22.70;49.70;;;;;;5012513;28;20517;-72
2023/03/09 06:25:40;;;;;;;9.25;4.82;;;22.80;50.10;;;;;;5013163;28;20044;-76
2023/03/09 06:28:09;;;;;;;4.68;3.95;;;22.80;52.50;;;;;;5029385;28;20371;-75
2023/03/09 06:30:40;;;;;;;6.82;3.50;;;22.70;49.40;;;;;;5012923;28;20079;-75
2023/03/09 06:33:08;;;;;;;5.97;4.75;;;22.80;46.40;;;;;;5012845;28;20045;-75
2023/03/09 06:35:37;;;;;;;7.60;5.10;;;22.70;48.40;;;;;;5012895;28;20175;-76
2023/03/09 06:38:05;;;;;;;6.13;3.00;;;22.60;46.90;;;;;;5012881;28;20049;-75
2023/03/09 06:40:32;;;;;;;4.55;2.90;;;22.70;46.30;;;;;;5028844;28;20068;-74
2023/03/09 06:42:58;;;;;;;7.95;2.70;;;22.60;43.80;;;;;;5030460;28;20540;-73
2023/03/09 06:45:25;;;;;;;2.40;2.08;;;22.60;45.60;;;;;;5030000;28;20456;-76
2023/03/09 06:47:56;;;;;;;1.58;1.42;;;22.70;46.00;;;;;;5029505;28;20080;-80
2023/03/09 06:50:25;;;;;;;4.90;3.03;;;22.80;57.50;;;;;;5030165;28;20156;-80
2023/03/09 06:52:52;;;;;;;1.38;1.23;;;22.90;57.30;;;;;;5031733;28;20048;-78
2023/03/09 06:55:19;;;;;;;2.17;1.83;;;22.90;55.10;;;;;;5030246;28;20033;-76
2023/03/09 06:57:50;;;;;;;4.00;1.90;;;22.90;54.40;;;;;;5030026;28;20063;-79
2023/03/09 07:00:16;;;;;;;1.38;1.10;;;22.90;54.30;;;;;;5031539;28;20079;-78
2023/03/09 07:02:45;;;;;;;0.80;0.80;;;22.90;50.50;;;;;;5030418;28;20025;-78
2023/03/09 07:05:12;;;;;;;2.72;1.48;;;23.00;52.60;;;;;;5031712;28;20397;-75
2023/03/09 07:07:39;;;;;;;0.75;0.55;;;23.00;53.70;;;;;;5031317;28;20083;-76
2023/03/09 07:10:05;;;;;;;3.35;1.80;;;23.00;53.80;;;;;;5031082;28;20045;-78
2023/03/09 07:12:31;;;;;;;4.00;1.52;;;23.00;55.20;;;;;;5031082;28;20039;-79
2023/03/09 07:14:57;;;;;;;5.57;1.88;;;23.00;55.80;;;;;;5030450;28;20037;-76
2023/03/09 07:17:23;;;;;;;5.10;0.95;;;22.90;55.60;;;;;;5031436;28;20029;-77
2023/03/09 07:19:51;;;;;;;1.08;0.98;;;22.90;55.50;;;;;;5031335;28;20074;-75
2023/03/09 07:22:18;;;;;;;6.03;1.98;;;23.00;55.90;;;;;;5039183;28;20397;-74
2023/03/09 07:24:44;;;;;;;1.13;0.95;;;22.90;55.60;;;;;;5031011;28;20037;-74
2023/03/09 07:27:10;;;;;;;1.80;1.13;;;22.90;54.30;;;;;;5031048;28;20029;-73
2023/03/09 07:29:38;;;;;;;2.22;1.58;;;22.90;53.60;;;;;;5039101;28;20056;-75
2023/03/09 07:32:04;;;;;;;2.75;2.15;;;23.00;53.00;;;;;;5050925;28;20051;-76
2023/03/09 07:34:33;;;;;;;3.17;1.10;;;22.90;52.90;;;;;;5050837;28;20041;-73
2023/03/09 07:37:00;;;;;;;0.70;0.70;;;23.10;52.40;;;;;;5050989;28;20078;-76
2023/03/09 07:39:26;;;;;;;4.50;2.45;;;23.00;52.00;;;;;;5031692;28;20116;-74
2023/03/09 07:41:52;;;;;;;2.25;2.05;;;22.90;51.60;;;;;;5031259;28;20041;-76
2023/03/09 07:44:18;;;;;;;4.90;1.70;;;22.90;51.40;;;;;;5031005;28;20029;-75
2023/03/09 07:46:44;;;;;;;2.95;1.95;;;23.00;51.80;;;;;;5030062;28;20492;-74
2023/03/09 07:49:10;;;;;;;3.83;1.10;;;22.90;52.20;;;;;;5030667;28;20075;-76
2023/03/09 07:51:37;;;;;;;4.60;2.15;;;22.90;52.70;;;;;;5030699;28;20025;-74
2023/03/09 07:54:07;;;;;;;1.60;1.50;;;23.00;53.30;;;;;;5030785;28;20041;-77
2023/03/09 07:56:33;;;;;;;1.63;1.50;;;23.00;53.90;;;;;;5049900;28;20032;-74
2023/03/09 07:58:59;;;;;;;3.35;1.60;;;23.20;54.60;;;;;;5050719;28;20481;-74
2023/03/09 08:01:29;;;;;;;2.03;1.45;;;23.00;55.20;;;;;;5050722;28;20044;-79
2023/03/09 08:03:55;;;;;;;2.67;1.50;;;23.00;55.10;;;;;;5050814;28;20088;-75
2023/03/09 08:06:21;;;;;;;2.35;1.73;;;23.10;55.70;;;;;;5050421;28;20569;-80
2023/03/09 08:08:47;;;;;;;3.67;1.70;;;23.00;56.10;;;;;;5050921;28;20144;-76
2023/03/09 08:11:13;;;;;;;2.45;2.00;;;23.00;56.60;;;;;;5050406;28;20477;-74
2023/03/09 08:13:39;;;;;;;0.98;0.52;;;23.10;56.70;;;;;;5050632;28;20029;-74
2023/03/09 08:16:08;;;;;;;1.77;0.93;;;22.90;56.50;;;;;;5050761;28;20112;-75
2023/03/09 08:18:34;;;;;;;3.38;1.45;;;23.00;56.70;;;;;;5046963;28;20112;-76
2023/03/09 08:21:12;;;;;;;3.05;1.60;;;23.00;57.10;;;;;;5030457;28;20047;-74
2023/03/09 08:23:40;;;;;;;4.47;1.42;;;22.90;57.50;;;;;;5030618;28;20041;-75
2023/03/09 08:26:08;;;;;;;3.63;1.30;;;23.00;57.50;;;;;;5030652;28;20029;-73
2023/03/09 08:28:33;;;;;;;2.10;1.73;;;22.90;57.70;;;;;;5031794;28;20036;-72
2023/03/09 08:31:00;;;;;;;1.20;0.98;;;22.90;57.50;;;;;;5050240;28;20041;-73
2023/03/09 08:33:26;;;;;;;2.92;1.50;;;23.00;57.70;;;;;;5049964;28;20564;-72
2023/03/09 08:35:52;;;;;;;4.18;1.50;;;22.90;57.50;;;;;;5053752;28;20118;-71
2023/03/09 08:38:18;;;;;;;1.67;1.58;;;22.90;57.60;;;;;;5052387;28;20087;-74
2023/03/09 08:40:44;;;;;;;3.80;2.13;;;22.90;57.70;;;;;;5033910;28;20046;-73
2023/03/09 08:43:10;;;;;;;1.95;1.30;;;23.00;60.00;;;;;;5033984;28;20030;-74
2023/03/09 08:45:37;;;;;;;9.80;2.10;;;22.90;60.00;;;;;;5034083;28;20060;-73
2023/03/09 08:48:03;;;;;;;3.38;1.00;;;22.90;60.10;;;;;;5016134;28;20056;-72
2023/03/09 08:50:29;;;;;;;2.25;1.83;;;22.90;59.30;;;;;;5033282;28;20037;-72
2023/03/09 08:52:56;;;;;;;5.97;1.52;;;23.00;59.10;;;;;;5033710;28;20095;-72
2023/03/09 08:55:22;;;;;;;3.38;1.55;;;22.90;59.00;;;;;;5033633;28;20068;-73
2023/03/09 08:57:48;;;;;;;2.28;1.98;;;23.00;59.00;;;;;;5033605;28;20044;-75
2023/03/09 09:00:15;;;;;;;3.90;1.30;;;22.90;59.00;;;;;;5033393;28;20539;-76
2023/03/09 09:02:41;;;;;;;3.35;1.17;;;22.90;58.90;;;;;;5033610;28;20075;-76
2023/03/09 09:05:08;;;;;;;1.98;1.40;;;23.00;58.80;;;;;;5032336;28;20397;-74
2023/03/09 09:07:34;;;;;;;5.20;2.40;;;23.00;58.80;;;;;;5033606;28;20030;-79
2023/03/09 09:10:00;;;;;;;1.92;1.30;;;23.00;58.80;;;;;;5033506;28;20049;-72
2023/03/09 09:12:27;;;;;;;2.90;1.58;;;23.00;58.90;;;;;;5033376;28;20076;-75
2023/03/09 09:14:56;;;;;;;0.85;0.85;;;23.00;59.00;;;;;;5033457;28;20042;-77
2023/03/09 09:17:23;;;;;;;1.45;1.20;;;23.10;59.40;;;;;;5033103;28;20033;-75
2023/03/09 09:19:51;;;;;;;0.43;0.43;;;23.00;59.90;;;;;;5033238;28;20071;-75
2023/03/09 09:22:17;;;;;;;1.92;1.58;;;23.00;60.90;;;;;;5033091;28;20029;-76
2023/03/09 09:24:44;;;;;;;0.75;0.75;;;23.10;61.00;;;;;;5033574;28;20043;-74
2023/03/09 09:27:11;;;;;;;1.23;1.13;;;23.10;62.50;;;;;;5030700;28;20048;-76
2023/03/09 09:29:36;;;;;;;0.90;0.90;;;23.00;61.90;;;;;;5032924;28;20028;-72
2023/03/09 09:32:04;;;;;;;1.40;1.23;;;23.10;61.60;;;;;;5032847;28;20124;-75
2023/03/09 09:34:32;;;;;;;6.22;1.90;;;23.00;59.80;;;;;;5033296;28;20033;-75
2023/03/09 09:37:00;;;;;;;1.83;1.52;;;23.10;56.70;;;;;;5032765;28;20461;-75
2023/03/09 09:39:27;;;;;;;3.47;1.27;;;23.10;53.30;;;;;;5028263;28;20041;-75
2023/03/09 09:41:59;;;;;;;2.67;1.48;;;23.10;51.90;;;;;;5013191;28;20565;-75
2023/03/09 09:44:38;;;;;;;2.75;1.95;;;23.30;54.40;;;;;;5012811;28;20117;-76
2023/03/09 09:47:07;;;;;;;2.20;1.50;;;23.30;49.20;;;;;;5013239;28;20089;-74
2023/03/09 09:49:48;;;;;;;2.17;1.63;;;23.30;55.10;;;;;;5012971;28;20030;-73
2023/03/09 09:52:23;;;;;;;1.50;1.27;;;23.20;49.50;;;;;;5012686;28;20401;-75
2023/03/09 09:54:55;;;;;;;3.00;1.33;;;23.30;49.20;;;;;;5012974;28;20038;-71
2023/03/09 09:57:30;;;;;;;3.60;1.70;;;23.20;51.60;;;;;;5012942;28;20458;-73
2023/03/09 09:59:59;;;;;;;0.82;0.82;;;23.40;50.00;;;;;;5012855;28;20034;-73
2023/03/09 10:02:47;;;;;;;2.65;1.40;;;23.40;56.80;;;;;;5012646;28;20168;-73
2023/03/09 10:05:31;;;;;;;1.80;1.20;;;23.50;48.30;;;;;;5012607;28;20042;-73
2023/03/09 10:08:05;;;;;;;4.43;1.60;;;23.50;46.20;;;;;;5012651;28;20474;-74
2023/03/09 10:10:32;;;;;;;2.28;1.48;;;23.40;44.40;;;;;;5042991;28;20053;-73
2023/03/09 10:13:04;;;;;;;2.25;1.73;;;23.40;44.40;;;;;;5012447;28;20040;-75
2023/03/09 10:15:34;;;;;;;5.88;1.40;;;23.40;44.90;;;;;;5012435;28;20133;-76
2023/03/09 10:18:14;;;;;;;1.90;1.27;;;23.40;45.60;;;;;;5026228;28;20071;-76
2023/03/09 10:20:50;;;;;;;5.22;2.08;;;23.40;45.70;;;;;;5031846;28;20037;-76
2023/03/09 10:23:34;;;;;;;3.45;1.15;;;23.40;44.30;;;;;;5031911;28;20715;-77
2023/03/09 10:26:19;;;;;;;2.03;1.30;;;23.40;44.20;;;;;;5031923;28;20033;-75
2023/03/09 10:28:49;;;;;;;3.20;1.63;;;23.40;46.90;;;;;;5035533;28;20413;-76
2023/03/09 10:31:20;;;;;;;4.63;1.17;;;23.40;43.50;;;;;;5051738;28;20493;-77
2023/03/09 10:33:58;;;;;;;2.03;1.38;;;23.30;43.50;;;;;;5051962;28;20094;-76
2023/03/09 10:36:33;;;;;;;2.08;1.50;;;23.40;44.70;;;;;;5066051;28;20083;-75
2023/03/09 10:39:09;;;;;;;4.28;1.73;;;23.40;46.30;;;;;;5052017;28;20033;-75
2023/03/09 10:41:35;;;;;;;4.45;1.42;;;23.40;44.00;;;;;;5051743;28;20037;-73
2023/03/09 10:44:03;;;;;;;3.05;1.50;;;23.40;43.40;;;;;;5051926;28;20033;-76
2023/03/09 10:46:30;;;;;;;4.68;1.95;;;23.30;43.90;;;;;;5051113;28;20057;-75
2023/03/09 10:49:13;;;;;;;2.38;1.58;;;23.40;45.20;;;;;;5031382;28;20083;-74
2023/03/09 10:51:41;;;;;;;;;;;23.40;53.10;;;;;;5032069;28;20052;-74
2023/03/09 10:54:27;;;;;;;3.15;1.02;;;23.50;54.10;;;;;;5031874;28;19912;-76
2023/03/09 10:56:54;;;;;;;3.78;1.77;;;23.60;54.40;;;;;;5030491;28;20041;-73
2023/03/09 10:59:22;;;;;;;2.58;1.85;;;23.70;49.70;;;;;;5030961;28;20033;-74
2023/03/09 11:01:54;;;;;;;1.60;1.50;;;23.70;52.60;;;;;;5030977;28;20033;-74
2023/03/09 11:04:24;;;;;;;6.43;1.27;;;23.60;49.10;;;;;;5031210;28;20044;-76
2023/03/09 11:06:53;;;;;;;1.80;1.60;;;23.50;50.80;;;;;;5031253;28;20065;-75
2023/03/09 11:09:42;;;;;;;4.05;1.10;;;23.60;51.90;;;;;;5031130;28;20037;-76
2023/03/09 11:12:14;;;;;;;1.83;1.40;;;23.70;45.60;;;;;;4989204;28;20054;-74
2023/03/09 11:15:02;;;;;;;4.22;1.67;;;23.60;48.90;;;;;;4989366;28;20038;-75
2023/03/09 11:17:48;;;;;;;7.15;1.98;;;23.70;46.80;;;;;;4989233;28;20046;-75
2023/03/09 11:20:23;;;;;;;1.63;1.23;;;23.50;46.80;;;;;;4988606;28;20585;-75
2023/03/09 11:23:12;;;;;;;1.17;1.00;;;23.80;58.00;;;;;;4989230;28;20038;-74
2023/03/09 11:25:44;;;;;;;1.40;1.23;;;23.70;58.30;;;;;;4950662;29;20130;-75
2023/03/09 11:28:31;;;;;;;9.55;1.90;;;23.80;58.20;;;;;;4918641;29;20051;-72
2023/03/09 11:30:57;;;;;;;2.60;1.33;;;23.90;58.40;;;;;;4931067;29;20069;-72
2023/03/09 11:33:25;;;;;;;1.35;1.25;;;23.70;56.50;;;;;;4931134;29;20488;-72
2023/03/09 11:35:54;;;;;;;2.05;1.42;;;23.90;56.40;;;;;;4931309;29;20380;-72
2023/03/09 11:38:22;;;;;;;2.42;1.33;;;23.80;55.90;;;;;;4931442;29;20063;-76
2023/03/09 11:40:54;;;;;;;1.85;1.35;;;23.70;50.60;;;;;;4931225;29;20043;-73
2023/03/09 11:43:25;;;;;;;3.80;1.20;;;23.80;47.20;;;;;;4931316;29;20051;-73
2023/03/09 11:45:58;;;;;;;5.32;1.50;;;23.70;47.70;;;;;;4940964;29;20047;-74
2023/03/09 11:48:32;;;;;;;1.95;1.60;;;23.70;46.80;;;;;;4957034;28;20082;-74
2023/03/09 11:50:58;;;;;;;4.00;1.58;;;23.80;44.90;;;;;;5006102;28;20049;-75
2023/03/09 11:53:34;;;;;;;2.35;1.02;;;23.70;45.30;;;;;;5008577;28;20383;-73
2023/03/09 11:56:28;;;;;;;1.30;1.20;;;23.70;54.90;;;;;;5008754;28;20060;-73
2023/03/09 11:59:11;;;;;;;3.83;1.27;;;23.70;56.30;;;;;;5008485;28;20049;-72
2023/03/09 12:01:44;;;;;;;1.25;1.10;;;23.70;56.60;;;;;;5010150;28;20092;-75
2023/03/09 12:04:14;;;;;;;5.75;1.45;;;23.90;57.60;;;;;;5010940;28;20042;-73
2023/03/09 12:07:11;;;;;;;3.30;1.50;;;23.70;58.10;;;;;;5011175;28;20045;-71
2023/03/09 12:09:45;;;;;;;2.63;1.50;;;23.70;57.40;;;;;;5014230;28;20038;-74
2023/03/09 12:12:33;;;;;;;0.60;0.60;;;23.70;56.70;;;;;;5012243;28;20050;-69
2023/03/09 12:15:34;;;;;;;0.55;0.50;;;23.70;56.20;;;;;;5014859;28;20030;-75
2023/03/09 12:18:04;;;;;;;2.53;1.10;;;23.80;56.40;;;;;;5014788;28;20088;-74
2023/03/09 12:20:47;;;;;;;3.33;1.23;;;23.70;56.40;;;;;;5029018;28;20056;-74
2023/03/09 12:23:35;;;;;;;1.58;1.02;;;23.70;56.20;;;;;;5034289;28;20034;-75
2023/03/09 12:26:31;;;;;;;2.13;0.90;;;23.70;56.40;;;;;;5033847;28;20037;-75
2023/03/09 12:29:12;;;;;;;0.90;0.88;;;23.80;56.50;;;;;;5039019;28;20051;-77
2023/03/09 12:31:39;;;;;;;3.00;1.48;;;23.60;56.40;;;;;;5054000;28;20051;-77
2023/03/09 12:34:08;;;;;;;0.98;0.95;;;23.70;56.50;;;;;;5052883;28;20044;-76
2023/03/09 12:36:42;;;;;;;0.80;0.80;;;23.70;56.60;;;;;;5054179;28;20053;-77
2023/03/09 12:39:26;;;;;;;2.30;1.75;;;23.60;56.60;;;;;;5053870;28;20082;-76
2023/03/09 12:42:00;;;;;;;1.65;1.08;;;23.60;56.60;;;;;;5053996;28;20037;-76
2023/03/09 12:44:47;;;;;;;1.02;0.90;;;23.60;56.60;;;;;;5053888;28;20633;-75
2023/03/09 12:47:36;;;;;;;2.25;1.20;;;23.50;56.60;;;;;;5054110;28;20104;-76
2023/03/09 12:50:23;;;;;;;1.48;1.35;;;23.60;56.60;;;;;;5053944;28;20423;-74
2023/03/09 12:52:49;;;;;;;2.50;1.40;;;23.70;57.10;;;;;;5053895;28;20045;-76
2023/03/09 12:55:24;;;;;;;4.93;1.80;;;23.70;58.80;;;;;;5014020;28;20036;-74
2023/03/09 12:58:10;;;;;;;2.80;1.70;;;23.70;59.00;;;;;;5033408;28;20076;-76
2023/03/09 13:00:48;;;;;;;1.77;1.60;;;23.70;55.20;;;;;;5033740;28;20022;-76
2023/03/09 13:03:17;;;;;;;1.63;1.33;;;23.70;49.20;;;;;;5033712;28;20359;-76